Huvudsida
METAR-TAF:

METAR-TAF

Flygplatser :

Gällivare, Sverige

Gällivare Lapland Airport

latitud: 67-09N, longitud: 020-39E, höjd: 359 m

Aktuellt väderrapport

Denna rapport gjordes för 36 minuter sedan, klockan 10:20 UTC
Vind 7 kt från ost
Temperatur -12°C
Fuktighet 85%
Tryck 1003 hPa
Sikt: 2200 m
Mulet på en höjd av 2200 ft
lätt snö

METAR: ESNG 171020Z 09007KT 2200 -SN OVC022 M12/M14 Q1003

Tid: 11:56 (10:56 UTC)

Väderprognos

Denna rapport gjordes för 2 timmar och 26 minuter sedan, klockan 08:30 UTC
Prognos gäller från 17 kl. 09 UTC till 17 kl. 12 UTC
Vind 12 kt från ost/sydost
Sikt: 5000 m
Mulet på en höjd av 1500 ft
lätt snö
Temporärt
från 17 kl. 09 UTC till 17 kl. 12 UTC
Sikt: 2000 m
Mulet på en höjd av 700 ft
snö

TAF: ESNG 170830Z 1709/1712 12012KT 5000 -SN OVC015 TEMPO 1709/1712 2000 SN OVC007

Aktuella väderrapporter och prognoser från 4000 flygplatser (METAR- och TAF-rapporter).

De tillgängliga stationerna syns som gula och röda prickar på kartan.

För musen över prickarna för att se namnen på stationerna.

Klicka sedan för att få väderrapporter och prognoser.

För att ändra kartan: Klicka på de gröna knapparna med ett svart kors på för att zooma in; den gröna knappen med ett streck på för att zooma ut; eller på de gröna pilarna för angränsande kartor.


METAR-TAF: